createdAt,value
2023-01-07T00:01:09.180Z,97035.75
2023-01-07T00:03:35.719Z,97042.53
2023-01-07T00:06:02.847Z,97038.59
2023-01-07T00:08:32.545Z,97042.00
2023-01-07T00:11:02.762Z,97037.63
2023-01-07T00:13:29.229Z,97029.31
2023-01-07T00:15:59.464Z,97029.59
2023-01-07T00:18:26.009Z,97026.41
2023-01-07T00:20:52.433Z,97033.72
2023-01-07T00:23:18.885Z,97025.97
2023-01-07T00:25:45.335Z,97029.50
2023-01-07T00:28:11.867Z,97032.44
2023-01-07T00:30:38.311Z,97038.13
2023-01-07T00:33:06.189Z,97037.09
2023-01-07T00:35:33.298Z,97037.47
2023-01-07T00:37:59.822Z,97043.13
2023-01-07T00:40:26.297Z,97043.75
2023-01-07T00:42:55.729Z,97042.34
2023-01-07T00:45:22.569Z,97039.06
2023-01-07T00:47:49.376Z,97042.69
2023-01-07T00:50:15.935Z,97049.63
2023-01-07T00:52:42.380Z,97049.75
2023-01-07T00:55:11.089Z,97048.22
2023-01-07T00:57:37.584Z,97051.66
2023-01-07T01:00:04.382Z,97044.00
2023-01-07T01:02:30.886Z,97044.00
2023-01-07T01:04:57.342Z,97039.78
2023-01-07T01:07:23.775Z,97039.22
2023-01-07T01:09:50.344Z,97041.09
2023-01-07T01:12:16.795Z,97043.13
2023-01-07T01:14:43.289Z,97047.56
2023-01-07T01:17:09.737Z,97053.66
2023-01-07T01:19:36.152Z,97054.13
2023-01-07T01:22:02.556Z,97046.72
2023-01-07T01:24:29.157Z,97044.28
2023-01-07T01:26:55.618Z,97047.81
2023-01-07T01:29:22.166Z,97047.69
2023-01-07T01:31:48.714Z,97053.31
2023-01-07T01:34:15.190Z,97046.88
2023-01-07T01:36:41.861Z,97042.66
2023-01-07T01:39:08.370Z,97042.88
2023-01-07T01:41:34.907Z,97040.44
2023-01-07T01:44:01.493Z,97036.91
2023-01-07T01:46:38.232Z,97034.31
2023-01-07T01:49:13.374Z,97044.03
2023-01-07T01:51:40.670Z,97044.19
2023-01-07T01:54:07.455Z,97049.34
2023-01-07T01:56:34.526Z,97058.84
2023-01-07T01:59:01.750Z,97042.66
2023-01-07T02:01:28.497Z,97047.97
2023-01-07T02:03:55.031Z,97047.09
2023-01-07T02:06:25.347Z,97045.47
2023-01-07T02:08:51.768Z,97048.88
2023-01-07T02:11:24.408Z,97043.03
2023-01-07T02:14:06.211Z,97042.19
2023-01-07T02:16:44.149Z,97043.16
2023-01-07T02:19:29.069Z,97034.47
2023-01-07T02:22:01.286Z,97030.94
2023-01-07T02:24:33.990Z,97025.31
2023-01-07T02:27:20.924Z,97021.78
2023-01-07T02:29:50.632Z,97025.31
2023-01-07T02:32:35.868Z,97008.88
2023-01-07T02:38:35.608Z,97014.75
2023-01-07T02:41:31.396Z,97028.47
2023-01-07T02:44:00.571Z,97030.25
2023-01-07T02:46:30.102Z,97020.84
2023-01-07T02:49:00.598Z,97021.78
2023-01-07T02:51:34.037Z,97017.81
2023-01-07T02:54:00.566Z,97009.84
2023-01-07T02:56:36.180Z,97013.72
2023-01-07T02:59:21.363Z,97005.31
2023-01-07T03:01:52.638Z,97020.91
2023-01-07T03:04:38.370Z,97016.91
2023-01-07T03:07:16.224Z,97012.91
2023-01-07T03:09:45.706Z,97012.56
2023-01-07T03:12:23.312Z,97012.94
2023-01-07T03:15:08.174Z,97018.47
2023-01-07T03:17:53.889Z,97013.06
2023-01-07T03:20:20.646Z,97017.66
2023-01-07T03:22:47.113Z,97019.50
2023-01-07T03:25:13.707Z,97022.06
2023-01-07T03:27:40.182Z,97012.84
2023-01-07T03:30:07.230Z,97024.91
2023-01-07T03:32:37.796Z,97012.97
2023-01-07T03:35:04.465Z,97020.56
2023-01-07T03:37:30.961Z,97017.97
2023-01-07T03:39:57.420Z,97017.84
2023-01-07T03:42:42.243Z,97014.59
2023-01-07T03:45:12.519Z,96951.75
2023-01-07T03:47:39.302Z,97011.75
2023-01-07T03:50:06.035Z,97009.56
2023-01-07T03:52:32.563Z,97006.38
2023-01-07T03:54:59.006Z,97008.47
2023-01-07T03:57:25.503Z,97018.44
2023-01-07T03:59:52.084Z,97007.13
2023-01-07T04:02:18.670Z,97020.59
2023-01-07T04:04:45.170Z,97007.34
2023-01-07T04:07:11.600Z,97008.75
2023-01-07T04:09:38.009Z,97007.03
2023-01-07T04:12:04.458Z,97006.91
2023-01-07T04:14:31.116Z,97001.50
2023-01-07T04:16:57.583Z,96998.66
2023-01-07T04:19:24.046Z,96991.53
2023-01-07T04:21:50.582Z,97002.94
2023-01-07T04:24:17.035Z,96997.19
2023-01-07T04:26:43.512Z,96991.16
2023-01-07T04:29:10.908Z,97002.78
2023-01-07T04:31:37.353Z,96999.75
2023-01-07T04:34:03.883Z,96999.81
2023-01-07T04:36:30.286Z,97007.25
2023-01-07T04:38:56.727Z,97003.47
2023-01-07T04:41:23.187Z,97001.34
2023-01-07T04:43:49.615Z,96999.50
2023-01-07T04:46:16.126Z,97006.31
2023-01-07T04:48:42.674Z,97009.31
2023-01-07T04:51:09.133Z,97007.03
2023-01-07T04:53:35.584Z,97006.41
2023-01-07T04:56:02.221Z,97005.00
2023-01-07T04:58:28.780Z,97001.69
2023-01-07T05:00:58.513Z,97011.44
2023-01-07T05:03:25.876Z,97013.84
2023-01-07T05:05:52.337Z,97007.66
2023-01-07T05:08:18.847Z,97017.72
2023-01-07T05:10:45.317Z,97012.38
2023-01-07T05:13:14.741Z,97021.50
2023-01-07T05:15:41.358Z,97019.16
2023-01-07T05:18:08.237Z,97015.75
2023-01-07T05:20:34.655Z,97027.75
2023-01-07T05:23:01.111Z,96959.84
2023-01-07T05:25:27.609Z,97018.81
2023-01-07T05:27:54.035Z,97022.19
2023-01-07T05:30:20.462Z,97019.44
2023-01-07T05:32:46.914Z,97011.53
2023-01-07T05:35:13.430Z,97008.88
2023-01-07T05:37:39.865Z,97015.44
2023-01-07T05:40:06.973Z,97006.00
2023-01-07T05:42:33.410Z,97016.88
2023-01-07T05:44:59.848Z,97009.72
2023-01-07T05:47:26.257Z,97013.50
2023-01-07T05:49:52.750Z,97015.66
2023-01-07T05:52:19.205Z,97011.88
2023-01-07T05:54:45.636Z,97013.44
2023-01-07T05:57:12.267Z,97017.63
2023-01-07T05:59:38.773Z,97014.13
2023-01-07T06:02:05.279Z,97022.84
2023-01-07T06:04:31.809Z,97022.25
2023-01-07T06:06:58.438Z,97026.88
2023-01-07T06:09:38.154Z,97030.53
2023-01-07T06:12:04.739Z,97023.19
2023-01-07T06:14:31.457Z,97026.03
2023-01-07T06:16:57.947Z,97030.44
2023-01-07T06:19:24.516Z,97028.78
2023-01-07T06:21:51.009Z,97034.75
2023-01-07T06:24:17.476Z,97035.38
2023-01-07T06:26:43.899Z,97031.69
2023-01-07T06:29:10.721Z,97039.06
2023-01-07T06:31:37.288Z,97036.31
2023-01-07T06:34:03.752Z,97041.97
2023-01-07T06:36:30.213Z,97042.38
2023-01-07T06:38:56.676Z,97042.16
2023-01-07T06:41:23.497Z,97041.03
2023-01-07T06:43:49.967Z,97039.91
2023-01-07T06:46:16.487Z,97040.75
2023-01-07T06:48:42.943Z,97037.47
2023-01-07T06:51:09.366Z,97040.44
2023-01-07T06:53:35.938Z,97039.91
2023-01-07T06:56:02.485Z,97044.41
2023-01-07T06:58:28.912Z,97050.59
2023-01-07T07:00:55.679Z,97042.78
2023-01-07T07:03:22.150Z,97041.63
2023-01-07T07:05:48.605Z,97045.41
2023-01-07T07:08:15.113Z,97043.97
2023-01-07T07:10:41.561Z,97044.69
2023-01-07T07:13:08.478Z,97047.88
2023-01-07T07:19:03.185Z,97053.53
2023-01-07T07:21:29.604Z,97051.59
2023-01-07T07:23:56.114Z,97050.25
2023-01-07T07:26:22.577Z,97055.91
2023-01-07T07:28:49.177Z,97060.03
2023-01-07T07:31:15.861Z,97059.94
2023-01-07T07:33:42.476Z,97058.78
2023-01-07T07:36:09.117Z,97057.78
2023-01-07T07:42:04.591Z,97060.03
2023-01-07T07:44:31.086Z,97061.69
2023-01-07T07:46:57.772Z,97058.06
2023-01-07T07:49:24.298Z,97051.00
2023-01-07T07:51:50.943Z,97055.03
2023-01-07T07:54:17.477Z,97055.50
2023-01-07T07:56:44.003Z,97057.19
2023-01-07T07:59:10.791Z,97058.72
2023-01-07T08:01:37.775Z,97056.84
2023-01-07T08:04:04.380Z,97055.94
2023-01-07T08:06:31.088Z,97057.47
2023-01-07T08:08:57.535Z,97064.06
2023-01-07T08:11:24.022Z,97063.75
2023-01-07T08:13:50.506Z,97053.06
2023-01-07T08:16:16.974Z,97056.84
2023-01-07T08:18:43.510Z,97053.97
2023-01-07T08:21:09.972Z,97052.50
2023-01-07T08:23:36.487Z,97056.78
2023-01-07T08:26:03.270Z,97049.47
2023-01-07T08:28:32.941Z,97042.88
2023-01-07T08:31:04.114Z,97039.44
2023-01-07T08:33:31.456Z,97037.53
2023-01-07T08:35:58.016Z,97047.34
2023-01-07T08:38:25.422Z,97049.53
2023-01-07T08:40:51.925Z,97040.69
2023-01-07T08:43:18.411Z,97038.22
2023-01-07T08:45:48.270Z,97034.47
2023-01-07T08:48:14.877Z,97028.19
2023-01-07T08:50:41.349Z,97044.59
2023-01-07T08:53:08.183Z,97038.94
2023-01-07T08:55:34.660Z,97041.84
2023-01-07T08:58:23.247Z,97046.78
2023-01-07T09:00:49.782Z,97036.69
2023-01-07T09:03:16.303Z,97036.94
2023-01-07T09:05:42.844Z,97037.06
2023-01-07T09:08:09.285Z,97040.72
2023-01-07T09:10:35.759Z,97040.84
2023-01-07T09:13:02.474Z,97041.75
2023-01-07T09:15:28.932Z,97039.31
2023-01-07T09:17:55.570Z,97042.69
2023-01-07T09:20:22.161Z,97041.66
2023-01-07T09:22:48.631Z,97039.53
2023-01-07T09:25:15.183Z,97039.13
2023-01-07T09:27:42.431Z,97044.75
2023-01-07T09:30:09.597Z,97041.44
2023-01-07T09:32:36.325Z,97034.94
2023-01-07T09:35:02.952Z,97038.16
2023-01-07T09:37:29.372Z,97039.03
2023-01-07T09:39:55.876Z,97036.81
2023-01-07T09:42:43.498Z,97027.78
2023-01-07T09:45:32.418Z,97030.66
2023-01-07T09:47:59.760Z,97028.38
2023-01-07T09:50:43.341Z,97025.94
2023-01-07T09:53:14.215Z,97029.78
2023-01-07T09:56:11.498Z,97030.59
2023-01-07T09:59:06.073Z,97026.00
2023-01-07T10:01:41.405Z,97021.22
2023-01-07T10:04:11.181Z,97021.63
2023-01-07T10:06:43.982Z,97026.00
2023-01-07T10:09:18.367Z,97013.06
2023-01-07T10:11:53.074Z,97016.72
2023-01-07T10:14:22.641Z,97012.63
2023-01-07T10:17:02.018Z,97017.66
2023-01-07T10:19:47.343Z,97011.38
2023-01-07T10:22:16.856Z,97006.03
2023-01-07T10:24:44.872Z,97006.28
2023-01-07T10:27:11.816Z,97006.69
2023-01-07T10:29:52.192Z,96995.38
2023-01-07T10:32:19.793Z,96991.38
2023-01-07T10:34:47.789Z,96987.44
2023-01-07T10:37:16.563Z,96983.91
2023-01-07T10:40:01.782Z,96978.00
2023-01-07T10:42:39.080Z,96972.19
2023-01-07T10:45:05.529Z,96972.75
2023-01-07T10:47:31.989Z,96967.56
2023-01-07T10:50:12.148Z,96969.19
2023-01-07T10:52:41.712Z,96968.00
2023-01-07T10:55:14.405Z,96959.28
2023-01-07T10:57:40.835Z,96953.81
2023-01-07T11:00:07.899Z,96956.72
2023-01-07T11:02:34.581Z,96952.25
2023-01-07T11:05:01.253Z,96957.81
2023-01-07T11:07:27.719Z,96949.50
2023-01-07T11:09:54.181Z,96943.78
2023-01-07T11:12:29.945Z,96944.09
2023-01-07T11:14:57.155Z,96939.59
2023-01-07T11:17:32.772Z,96934.97
2023-01-07T11:19:59.471Z,96926.66
2023-01-07T11:22:25.890Z,96923.78
2023-01-07T11:24:56.153Z,96925.41
2023-01-07T11:27:23.888Z,96924.88
2023-01-07T11:30:20.826Z,96920.94
2023-01-07T11:32:55.674Z,96916.69
2023-01-07T11:35:23.150Z,96908.25
2023-01-07T11:37:49.711Z,96906.88
2023-01-07T11:40:16.130Z,96908.13
2023-01-07T11:42:48.724Z,96909.34
2023-01-07T11:45:25.296Z,96899.00
2023-01-07T11:48:00.823Z,96893.97
2023-01-07T11:50:27.272Z,96885.25
2023-01-07T11:53:06.901Z,96888.09
2023-01-07T11:55:33.356Z,96884.41
2023-01-07T11:58:29.992Z,96877.75
2023-01-07T12:00:46.754Z,96878.50
2023-01-07T12:03:13.741Z,96871.41
2023-01-07T12:05:41.197Z,96866.44
2023-01-07T12:08:07.905Z,96870.25
2023-01-07T12:10:34.359Z,96866.44
2023-01-07T12:13:01.587Z,96869.00
2023-01-07T12:15:29.463Z,96860.09
2023-01-07T12:18:00.350Z,96864.31
2023-01-07T12:20:45.614Z,96859.97
2023-01-07T12:23:15.232Z,96858.88
2023-01-07T12:26:08.097Z,96856.66
2023-01-07T12:28:47.317Z,96855.28
2023-01-07T12:31:27.764Z,96851.56
2023-01-07T12:33:57.813Z,96849.06
2023-01-07T12:36:33.662Z,96851.22
2023-01-07T12:39:01.075Z,96854.25
2023-01-07T12:41:28.834Z,96845.81
2023-01-07T12:43:57.736Z,96843.13
2023-01-07T12:46:24.717Z,96842.50
2023-01-07T12:49:05.228Z,96843.50
2023-01-07T12:51:50.552Z,96834.56
2023-01-07T12:54:32.579Z,96835.13
2023-01-07T12:57:00.223Z,96826.59
2023-01-07T12:59:48.102Z,96822.94
2023-01-07T13:02:41.809Z,96816.97
2023-01-07T13:05:28.771Z,96815.91
2023-01-07T13:07:56.938Z,96818.09
2023-01-07T13:10:36.876Z,96810.88
2023-01-07T13:13:04.796Z,96807.09
2023-01-07T13:15:33.694Z,96813.22
2023-01-07T13:18:10.660Z,96808.03
2023-01-07T13:20:44.412Z,96808.84
2023-01-07T13:23:37.266Z,96807.09
2023-01-07T13:26:07.159Z,96797.25
2023-01-07T13:28:52.473Z,96803.66
2023-01-07T13:31:22.011Z,96795.88
2023-01-07T13:34:04.552Z,96799.44
2023-01-07T13:36:31.058Z,96799.72
2023-01-07T13:39:02.146Z,96800.66
2023-01-07T13:41:28.609Z,96793.19
2023-01-07T13:44:10.155Z,96794.81
2023-01-07T13:46:37.499Z,96805.03
2023-01-07T13:49:04.182Z,96792.66
2023-01-07T13:51:34.373Z,96790.47
2023-01-07T13:54:01.128Z,96796.22
2023-01-07T13:56:27.699Z,96796.75
2023-01-07T13:58:55.841Z,96792.53
2023-01-07T14:01:23.165Z,96784.38
2023-01-07T14:04:09.932Z,96790.47
2023-01-07T14:06:39.208Z,96793.56
2023-01-07T14:09:11.026Z,96798.63
2023-01-07T14:11:39.049Z,96794.09
2023-01-07T14:14:05.497Z,96794.38
2023-01-07T14:16:33.954Z,96785.53
2023-01-07T14:19:35.869Z,96791.78
2023-01-07T14:22:05.284Z,96785.41
2023-01-07T14:24:44.049Z,96778.03
2023-01-07T14:27:36.674Z,96779.13
2023-01-07T14:30:22.540Z,96781.31
2023-01-07T14:32:59.102Z,96779.09
2023-01-07T14:35:25.592Z,96783.84
2023-01-07T14:37:52.071Z,96774.06
2023-01-07T14:40:29.272Z,96772.56
2023-01-07T14:42:58.822Z,96783.13
2023-01-07T14:45:37.475Z,96777.25
2023-01-07T14:48:12.846Z,96781.56
2023-01-07T14:50:52.591Z,96771.88
2023-01-07T14:53:37.284Z,96773.72
2023-01-07T14:56:03.745Z,96775.81
2023-01-07T14:58:33.055Z,96777.53
2023-01-07T15:00:59.569Z,96781.94
2023-01-07T15:03:44.723Z,96779.69
2023-01-07T15:06:12.036Z,96772.56
2023-01-07T15:09:00.636Z,96774.66
2023-01-07T15:11:45.956Z,96781.13
2023-01-07T15:14:34.158Z,96776.47
2023-01-07T15:17:00.618Z,96772.28
2023-01-07T15:19:27.054Z,96770.66
2023-01-07T15:22:03.189Z,96770.41
2023-01-07T15:24:48.230Z,96768.09
2023-01-07T15:27:15.259Z,96775.31
2023-01-07T15:29:51.289Z,96771.94
2023-01-07T15:32:41.178Z,96766.66
2023-01-07T15:35:17.936Z,96767.47
2023-01-07T15:37:45.429Z,96767.94
2023-01-07T15:40:14.707Z,96770.81
2023-01-07T15:42:41.209Z,96765.22
2023-01-07T15:45:11.053Z,96763.56
2023-01-07T15:47:39.209Z,96761.34
2023-01-07T15:50:24.490Z,96755.09
2023-01-07T15:52:55.152Z,96758.72
2023-01-07T15:55:25.921Z,96764.09
2023-01-07T15:57:53.373Z,96756.72
2023-01-07T16:00:20.734Z,96756.94
2023-01-07T16:02:47.204Z,96758.13
2023-01-07T16:05:13.704Z,96757.50
2023-01-07T16:07:52.673Z,96755.50
2023-01-07T16:10:19.945Z,96756.41
2023-01-07T16:12:48.406Z,96751.38
2023-01-07T16:15:22.241Z,96756.63
2023-01-07T16:17:56.208Z,96745.31
2023-01-07T16:20:38.911Z,96748.59
2023-01-07T16:23:08.518Z,96742.41
2023-01-07T16:25:36.025Z,96742.22
2023-01-07T16:28:22.352Z,96736.63
2023-01-07T16:30:49.074Z,96740.50
2023-01-07T16:33:16.255Z,96741.81
2023-01-07T16:35:42.759Z,96738.19
2023-01-07T16:38:09.196Z,96737.97
2023-01-07T16:40:36.601Z,96741.84
2023-01-07T16:43:03.506Z,96735.53
2023-01-07T16:45:30.813Z,96742.56
2023-01-07T16:48:01.075Z,96726.91
2023-01-07T16:50:29.939Z,96731.81
2023-01-07T16:52:56.674Z,96729.81
2023-01-07T16:55:58.671Z,96728.09
2023-01-07T16:58:43.401Z,96723.06
2023-01-07T17:01:09.974Z,96712.78
2023-01-07T17:03:47.232Z,96723.53
2023-01-07T17:06:13.830Z,96713.94
2023-01-07T17:08:40.338Z,96716.41
2023-01-07T17:11:09.331Z,96713.84
2023-01-07T17:13:36.878Z,96711.38
2023-01-07T17:16:16.860Z,96709.41
2023-01-07T17:18:43.382Z,96707.66
2023-01-07T17:21:29.636Z,96718.53
2023-01-07T17:23:56.165Z,96710.56
2023-01-07T17:26:23.208Z,96710.69
2023-01-07T17:28:53.666Z,96703.91
2023-01-07T17:31:20.264Z,96703.09
2023-01-07T17:33:46.967Z,96702.75
2023-01-07T17:36:17.138Z,96696.88
2023-01-07T17:38:43.725Z,96696.19
2023-01-07T17:41:33.707Z,96696.06
2023-01-07T17:44:00.656Z,96696.19
2023-01-07T17:46:27.782Z,96696.31
2023-01-07T17:48:54.349Z,96694.31
2023-01-07T17:51:20.833Z,96695.13
2023-01-07T17:53:48.065Z,96686.13
2023-01-07T17:56:14.779Z,96685.78
2023-01-07T17:58:41.429Z,96676.19
2023-01-07T18:01:08.781Z,96685.91
2023-01-07T18:03:35.450Z,96685.44
2023-01-07T18:06:24.660Z,96678.66
2023-01-07T18:08:51.499Z,96679.00
2023-01-07T18:11:41.144Z,96681.91
2023-01-07T18:17:29.540Z,96678.38
2023-01-07T18:19:56.229Z,96677.63
2023-01-07T18:22:22.874Z,96688.69
2023-01-07T18:24:49.507Z,96671.94
2023-01-07T18:27:16.443Z,96669.97
2023-01-07T18:29:43.082Z,96669.28
2023-01-07T18:32:09.605Z,96670.19
2023-01-07T18:34:36.173Z,96671.41
2023-01-07T18:37:02.674Z,96677.72
2023-01-07T18:39:31.374Z,96674.47
2023-01-07T18:41:57.908Z,96668.09
2023-01-07T18:44:24.496Z,96676.09
2023-01-07T18:46:51.086Z,96673.50
2023-01-07T18:49:17.557Z,96681.25
2023-01-07T18:51:45.302Z,96685.44
2023-01-07T18:54:11.869Z,96680.66
2023-01-07T18:56:38.355Z,96673.41
2023-01-07T18:59:05.721Z,96674.50
2023-01-07T19:01:32.330Z,96681.97
2023-01-07T19:03:59.006Z,96679.78
2023-01-07T19:06:25.482Z,96675.69
2023-01-07T19:08:51.993Z,96672.97
2023-01-07T19:11:18.464Z,96679.06
2023-01-07T19:13:44.972Z,96673.81
2023-01-07T19:16:11.953Z,96670.41
2023-01-07T19:18:38.578Z,96673.81
2023-01-07T19:21:05.650Z,96672.97
2023-01-07T19:23:32.212Z,96662.59
2023-01-07T19:26:08.371Z,96665.72
2023-01-07T19:28:35.036Z,96670.66
2023-01-07T19:31:04.195Z,96661.03
2023-01-07T19:33:30.631Z,96657.66
2023-01-07T19:36:00.241Z,96661.16
2023-01-07T19:38:27.805Z,96656.97
2023-01-07T19:40:54.255Z,96660.56
2023-01-07T19:43:20.714Z,96654.75
2023-01-07T19:45:58.386Z,96654.16
2023-01-07T19:48:25.040Z,96658.38
2023-01-07T19:50:55.318Z,96662.81
2023-01-07T19:53:21.837Z,96652.78
2023-01-07T19:55:48.508Z,96657.00
2023-01-07T19:58:15.082Z,96657.69
2023-01-07T20:00:41.631Z,96653.59
2023-01-07T20:03:08.157Z,96645.16
2023-01-07T20:05:34.782Z,96646.47
2023-01-07T20:08:01.329Z,96651.88
2023-01-07T20:10:27.758Z,96647.88
2023-01-07T20:12:54.241Z,96632.94
2023-01-07T20:15:20.868Z,96641.94
2023-01-07T20:17:47.364Z,96632.72
2023-01-07T20:20:13.829Z,96639.50
2023-01-07T20:22:40.340Z,96630.28
2023-01-07T20:25:07.567Z,96631.53
2023-01-07T20:27:34.602Z,96636.69
2023-01-07T20:30:01.098Z,96630.63
2023-01-07T20:32:27.584Z,96633.88
2023-01-07T20:34:54.077Z,96627.66
2023-01-07T20:37:20.547Z,96631.31
2023-01-07T20:39:47.282Z,96635.50
2023-01-07T20:42:14.024Z,96621.59
2023-01-07T20:44:41.568Z,96623.47
2023-01-07T20:47:09.582Z,96624.41
2023-01-07T20:49:36.079Z,96621.16
2023-01-07T20:52:02.512Z,96627.34
2023-01-07T20:54:29.048Z,96620.44
2023-01-07T20:56:55.477Z,96619.38
2023-01-07T20:59:21.916Z,96620.78
2023-01-07T21:01:48.623Z,96611.31
2023-01-07T21:04:15.403Z,96603.47
2023-01-07T21:06:42.085Z,96596.22
2023-01-07T21:09:09.051Z,96602.63
2023-01-07T21:11:35.647Z,96590.22
2023-01-07T21:14:02.139Z,96587.75
2023-01-07T21:16:29.130Z,96583.31
2023-01-07T21:18:55.867Z,96583.31
2023-01-07T21:21:24.593Z,96578.03
2023-01-07T21:23:51.607Z,96573.22
2023-01-07T21:26:18.310Z,96576.75
2023-01-07T21:28:44.863Z,96583.75
2023-01-07T21:31:11.892Z,96565.19
2023-01-07T21:33:38.710Z,96584.94
2023-01-07T21:36:09.005Z,96575.78
2023-01-07T21:38:35.508Z,96577.56
2023-01-07T21:41:05.972Z,96576.03
2023-01-07T21:43:32.439Z,96576.16
2023-01-07T21:46:00.022Z,96569.97
2023-01-07T21:48:26.511Z,96575.09
2023-01-07T21:50:53.018Z,96586.91
2023-01-07T21:53:19.468Z,96575.28
2023-01-07T21:55:46.059Z,96575.28
2023-01-07T21:58:12.505Z,96570.84
2023-01-07T22:00:39.064Z,96576.69
2023-01-07T22:03:05.612Z,96579.59
2023-01-07T22:05:32.123Z,96572.31
2023-01-07T22:07:58.613Z,96572.75
2023-01-07T22:10:25.079Z,96572.75
2023-01-07T22:12:51.644Z,96578.00
2023-01-07T22:15:18.189Z,96578.00
2023-01-07T22:17:44.713Z,96584.81
2023-01-07T22:20:11.713Z,96571.81
2023-01-07T22:22:38.193Z,96561.38
2023-01-07T22:25:04.890Z,96566.16
2023-01-07T22:27:31.444Z,96561.16
2023-01-07T22:29:58.299Z,96567.22
2023-01-07T22:32:24.871Z,96569.38
2023-01-07T22:34:51.335Z,96563.38
2023-01-07T22:37:18.063Z,96566.22
2023-01-07T22:39:45.542Z,96563.63
2023-01-07T22:42:13.237Z,96552.25
2023-01-07T22:44:41.514Z,96556.50
2023-01-07T22:47:08.576Z,96562.78
2023-01-07T22:49:35.151Z,96552.22
2023-01-07T22:52:01.770Z,96552.22
2023-01-07T22:54:28.205Z,96551.25
2023-01-07T22:56:54.687Z,96542.03
2023-01-07T22:59:21.173Z,96537.34
2023-01-07T23:01:47.666Z,96538.66
2023-01-07T23:04:14.221Z,96542.19
2023-01-07T23:06:40.846Z,96528.22
2023-01-07T23:09:07.383Z,96529.31
2023-01-07T23:11:49.107Z,96527.28
2023-01-07T23:14:16.052Z,96514.72
2023-01-07T23:16:42.557Z,96511.34
2023-01-07T23:19:09.076Z,96516.25
2023-01-07T23:21:37.690Z,96511.78
2023-01-07T23:24:04.286Z,96510.44
2023-01-07T23:26:30.796Z,96509.16
2023-01-07T23:28:57.271Z,96500.28
2023-01-07T23:31:23.776Z,96504.06
2023-01-07T23:33:50.518Z,96494.94
2023-01-07T23:36:16.996Z,96493.34
2023-01-07T23:38:43.448Z,96496.13
2023-01-07T23:41:10.295Z,96496.84
2023-01-07T23:43:36.785Z,96498.84
2023-01-07T23:46:03.776Z,96495.59
2023-01-07T23:48:30.781Z,96485.75
2023-01-07T23:50:57.336Z,96494.50
2023-01-07T23:53:23.874Z,96500.25
2023-01-07T23:55:53.862Z,96497.53
2023-01-07T23:58:20.585Z,96496.13
